createdAt,value
2023-04-20T00:00:44.603Z,8.30
2023-04-20T00:03:12.882Z,7.47
2023-04-20T00:05:39.539Z,8.20
2023-04-20T00:08:06.224Z,14.90
2023-04-20T00:10:32.941Z,9.70
2023-04-20T00:12:59.447Z,9.27
2023-04-20T00:15:26.053Z,10.87
2023-04-20T00:17:53.760Z,9.60
2023-04-20T00:20:20.393Z,7.50
2023-04-20T00:22:46.881Z,8.10
2023-04-20T00:25:13.670Z,8.30
2023-04-20T00:27:40.295Z,8.50
2023-04-20T00:30:07.583Z,8.33
2023-04-20T00:32:34.208Z,7.70
2023-04-20T00:35:01.180Z,7.80
2023-04-20T00:37:28.693Z,8.03
2023-04-20T00:39:55.814Z,8.47
2023-04-20T00:42:22.370Z,8.60
2023-04-20T00:44:50.404Z,8.73
2023-04-20T00:47:17.126Z,8.00
2023-04-20T00:49:43.657Z,8.40
2023-04-20T00:52:10.449Z,9.03
2023-04-20T00:54:37.003Z,8.47
2023-04-20T00:57:04.688Z,9.60
2023-04-20T00:59:31.118Z,7.93
2023-04-20T01:01:58.536Z,16.20
2023-04-20T01:04:26.094Z,7.17
2023-04-20T01:06:52.757Z,7.87
2023-04-20T01:09:19.456Z,6.30
2023-04-20T01:11:46.313Z,7.60
2023-04-20T01:14:12.812Z,8.00
2023-04-20T01:16:39.352Z,8.00
2023-04-20T01:19:06.210Z,7.30
2023-04-20T01:21:32.847Z,9.27
2023-04-20T01:23:59.573Z,8.93
2023-04-20T01:26:26.184Z,8.97
2023-04-20T01:28:53.060Z,9.27
2023-04-20T01:31:20.083Z,9.47
2023-04-20T01:33:46.632Z,8.70
2023-04-20T01:36:13.649Z,10.53
2023-04-20T01:38:40.430Z,9.87
2023-04-20T01:41:08.888Z,9.13
2023-04-20T01:43:36.349Z,8.27
2023-04-20T01:46:03.163Z,9.87
2023-04-20T01:48:29.699Z,9.70
2023-04-20T01:50:56.401Z,10.50
2023-04-20T01:53:23.483Z,10.57
2023-04-20T01:55:50.479Z,9.23
2023-04-20T01:58:17.244Z,10.60
2023-04-20T02:00:44.514Z,12.60
2023-04-20T02:03:11.290Z,12.60
2023-04-20T02:05:37.937Z,10.30
2023-04-20T02:08:04.963Z,10.93
2023-04-20T02:10:31.507Z,10.73
2023-04-20T02:12:59.469Z,11.23
2023-04-20T02:15:26.019Z,11.77
2023-04-20T02:17:52.994Z,12.47
2023-04-20T02:20:20.438Z,11.90
2023-04-20T02:22:47.057Z,11.67
2023-04-20T02:25:14.137Z,12.37
2023-04-20T02:27:41.052Z,12.50
2023-04-20T02:30:08.398Z,10.93
2023-04-20T02:32:35.352Z,12.43
2023-04-20T02:35:04.076Z,11.47
2023-04-20T02:37:30.905Z,11.40
2023-04-20T02:39:57.489Z,10.63
2023-04-20T02:42:24.014Z,12.30
2023-04-20T02:44:52.717Z,10.57
2023-04-20T02:47:19.536Z,11.43
2023-04-20T02:49:46.183Z,10.67
2023-04-20T02:52:12.873Z,12.80
2023-04-20T02:54:39.374Z,12.40
2023-04-20T02:57:06.303Z,11.33
2023-04-20T02:59:32.992Z,10.73
2023-04-20T03:01:59.511Z,11.30
2023-04-20T03:04:27.978Z,10.90
2023-04-20T03:06:54.774Z,10.93
2023-04-20T03:09:21.401Z,12.30
2023-04-20T03:11:47.946Z,10.80
2023-04-20T03:14:14.607Z,11.10
2023-04-20T03:16:41.952Z,11.37
2023-04-20T03:19:08.686Z,12.87
2023-04-20T03:21:35.466Z,11.67
2023-04-20T03:24:02.020Z,10.63
2023-04-20T03:26:28.526Z,9.80
2023-04-20T03:28:55.248Z,10.40
2023-04-20T03:31:21.794Z,9.03
2023-04-20T03:33:48.566Z,9.10
2023-04-20T03:36:15.174Z,8.90
2023-04-20T03:38:41.653Z,8.40
2023-04-20T03:41:08.223Z,8.10
2023-04-20T03:43:35.056Z,7.97
2023-04-20T03:46:02.015Z,8.83
2023-04-20T03:48:28.686Z,7.80
2023-04-20T03:50:55.569Z,8.27
2023-04-20T03:53:23.174Z,7.90
2023-04-20T03:55:49.686Z,8.47
2023-04-20T03:58:16.301Z,7.00
2023-04-20T04:00:43.139Z,6.40
2023-04-20T04:03:11.031Z,6.80
2023-04-20T04:05:37.659Z,6.93
2023-04-20T04:08:04.259Z,7.77
2023-04-20T04:10:31.096Z,7.90
2023-04-20T04:12:57.674Z,8.87
2023-04-20T04:15:24.265Z,8.13
2023-04-20T04:17:51.169Z,9.10
2023-04-20T04:20:18.071Z,10.60
2023-04-20T04:22:44.538Z,10.10
2023-04-20T04:25:11.791Z,9.90
2023-04-20T04:27:39.910Z,8.97
2023-04-20T04:30:07.317Z,8.00
2023-04-20T04:32:36.709Z,8.63
2023-04-20T04:35:03.629Z,8.07
2023-04-20T04:37:30.197Z,8.07
2023-04-20T04:39:58.224Z,5.77
2023-04-20T04:42:24.923Z,5.13
2023-04-20T04:44:54.853Z,5.90
2023-04-20T04:47:22.867Z,5.37
2023-04-20T04:49:50.035Z,5.80
2023-04-20T04:52:16.543Z,5.13
2023-04-20T04:54:43.014Z,4.30
2023-04-20T04:57:09.846Z,4.87
2023-04-20T04:59:36.334Z,3.87
2023-04-20T05:02:03.212Z,4.10
2023-04-20T05:04:30.076Z,3.77
2023-04-20T05:06:56.902Z,3.73
2023-04-20T05:09:23.377Z,3.03
2023-04-20T05:11:49.920Z,3.50
2023-04-20T05:14:16.400Z,4.00
2023-04-20T05:16:43.000Z,3.37
2023-04-20T05:19:09.606Z,2.77
2023-04-20T05:21:36.305Z,3.50
2023-04-20T05:24:02.852Z,3.00
2023-04-20T05:26:29.481Z,3.03
2023-04-20T05:28:55.921Z,3.60
2023-04-20T05:31:22.541Z,3.20
2023-04-20T05:33:49.076Z,3.43
2023-04-20T05:36:15.581Z,3.30
2023-04-20T05:38:42.049Z,3.73
2023-04-20T05:41:08.532Z,3.53
2023-04-20T05:43:35.083Z,4.43
2023-04-20T05:46:01.640Z,4.03
2023-04-20T05:48:30.069Z,3.90
2023-04-20T05:50:56.938Z,4.53
2023-04-20T05:53:23.514Z,4.40
2023-04-20T05:55:50.182Z,4.40
2023-04-20T05:58:16.962Z,4.10
2023-04-20T06:00:43.756Z,4.70
2023-04-20T06:03:10.608Z,4.40
2023-04-20T06:05:37.490Z,3.83
2023-04-20T06:08:04.253Z,4.60
2023-04-20T06:10:32.561Z,4.03
2023-04-20T06:12:59.091Z,4.80
2023-04-20T06:15:25.966Z,12.70
2023-04-20T06:17:52.585Z,7.40
2023-04-20T06:20:20.527Z,7.60
2023-04-20T06:22:47.959Z,7.50
2023-04-20T06:25:15.851Z,5.30
2023-04-20T06:27:42.605Z,4.20
2023-04-20T06:30:10.110Z,10.00
2023-04-20T06:32:38.206Z,4.50
2023-04-20T06:35:06.106Z,11.83
2023-04-20T06:37:32.718Z,10.20
2023-04-20T06:39:59.561Z,7.97
2023-04-20T06:42:26.336Z,5.10
2023-04-20T06:44:53.007Z,4.87
2023-04-20T06:47:19.618Z,5.70
2023-04-20T06:49:46.349Z,5.27
2023-04-20T06:52:12.844Z,10.90
2023-04-20T06:54:39.450Z,8.30
2023-04-20T06:57:06.537Z,4.70
2023-04-20T06:59:33.387Z,4.10
2023-04-20T07:02:00.136Z,7.80
2023-04-20T07:04:26.885Z,7.13
2023-04-20T07:06:54.128Z,9.87
2023-04-20T07:09:21.258Z,12.23
2023-04-20T07:11:47.774Z,7.20
2023-04-20T07:14:14.580Z,11.43
2023-04-20T07:16:41.781Z,6.40
2023-04-20T07:19:08.429Z,5.17
2023-04-20T07:21:36.100Z,5.30
2023-04-20T07:24:02.693Z,5.13
2023-04-20T07:26:29.318Z,5.13
2023-04-20T07:28:56.031Z,6.30
2023-04-20T07:31:22.787Z,5.90
2023-04-20T07:33:49.332Z,6.00
2023-04-20T07:36:15.961Z,5.63
2023-04-20T07:38:42.503Z,4.90
2023-04-20T07:41:10.388Z,5.80
2023-04-20T07:43:37.371Z,6.03
2023-04-20T07:46:04.228Z,5.97
2023-04-20T07:48:32.100Z,6.30
2023-04-20T07:50:58.613Z,5.60
2023-04-20T07:53:25.128Z,5.73
2023-04-20T07:55:52.829Z,4.70
2023-04-20T07:58:19.499Z,5.10
2023-04-20T08:00:47.223Z,5.07
2023-04-20T08:03:14.911Z,4.77
2023-04-20T08:05:41.705Z,6.37
2023-04-20T08:08:08.406Z,4.53
2023-04-20T08:10:35.158Z,4.27
2023-04-20T08:13:01.814Z,4.50
2023-04-20T08:15:28.467Z,4.50
2023-04-20T08:17:55.300Z,4.20
2023-04-20T08:20:22.036Z,4.63
2023-04-20T08:22:49.367Z,4.17
2023-04-20T08:25:16.423Z,3.80
2023-04-20T08:27:42.954Z,3.83
2023-04-20T08:30:09.769Z,4.77
2023-04-20T08:32:36.537Z,3.60
2023-04-20T08:35:04.204Z,3.50
2023-04-20T08:37:32.722Z,3.67
2023-04-20T08:39:59.669Z,4.27
2023-04-20T08:42:26.377Z,3.60
2023-04-20T08:44:53.405Z,4.40
2023-04-20T08:47:21.471Z,3.23
2023-04-20T08:49:50.000Z,3.60
2023-04-20T08:52:16.689Z,4.70
2023-04-20T08:54:53.260Z,4.10
2023-04-20T08:57:23.223Z,4.87
2023-04-20T08:59:49.873Z,4.17
2023-04-20T09:02:16.610Z,4.60
2023-04-20T09:04:43.560Z,4.37
2023-04-20T09:07:21.158Z,4.10
2023-04-20T09:10:14.290Z,4.00
2023-04-20T09:12:42.320Z,3.63
2023-04-20T09:15:10.499Z,4.07
2023-04-20T09:17:40.262Z,4.67
2023-04-20T09:20:08.574Z,4.83
2023-04-20T09:22:37.049Z,3.33
2023-04-20T09:25:20.023Z,4.83
2023-04-20T09:28:01.511Z,3.40
2023-04-20T09:30:48.723Z,3.90
2023-04-20T09:33:15.393Z,4.20
2023-04-20T09:35:43.572Z,3.47
2023-04-20T09:38:11.657Z,4.10
2023-04-20T09:40:38.160Z,3.97
2023-04-20T09:43:15.614Z,4.27
2023-04-20T09:45:42.785Z,3.90
2023-04-20T09:48:09.718Z,3.77
2023-04-20T09:50:48.594Z,6.27
2023-04-20T09:53:20.091Z,4.03
2023-04-20T09:55:52.353Z,3.60
2023-04-20T09:58:21.224Z,4.13
2023-04-20T10:00:48.298Z,3.53
2023-04-20T10:03:19.444Z,3.60
2023-04-20T10:05:46.498Z,4.20
2023-04-20T10:08:13.473Z,4.07
2023-04-20T10:10:44.772Z,3.80
2023-04-20T10:13:11.526Z,3.73
2023-04-20T10:15:39.614Z,3.77
2023-04-20T10:18:20.954Z,4.30
2023-04-20T10:20:47.923Z,4.00
2023-04-20T10:23:16.117Z,2.90
2023-04-20T10:25:45.161Z,4.20
2023-04-20T10:28:43.513Z,3.10
2023-04-20T10:31:15.771Z,3.30
2023-04-20T10:33:52.892Z,3.30
2023-04-20T10:36:24.477Z,3.17
2023-04-20T10:38:51.952Z,3.30
2023-04-20T10:41:18.561Z,3.20
2023-04-20T10:43:45.224Z,3.87
2023-04-20T10:46:19.903Z,3.90
2023-04-20T10:49:03.553Z,2.90
2023-04-20T10:51:30.629Z,3.90
2023-04-20T10:54:08.317Z,36.00
2023-04-20T10:56:38.514Z,2.43
2023-04-20T10:59:09.283Z,2.53
2023-04-20T11:01:36.095Z,2.70
2023-04-20T11:04:02.923Z,2.70
2023-04-20T11:06:30.411Z,2.43
2023-04-20T11:08:57.468Z,2.80
2023-04-20T11:11:27.820Z,2.70
2023-04-20T11:14:10.747Z,3.50
2023-04-20T11:16:49.639Z,3.20
2023-04-20T11:19:23.023Z,2.47
2023-04-20T11:21:49.638Z,3.47
2023-04-20T11:24:23.521Z,2.63
2023-04-20T11:26:51.102Z,3.10
2023-04-20T11:29:34.867Z,3.30
2023-04-20T11:32:06.624Z,3.23
2023-04-20T11:34:34.708Z,3.63
2023-04-20T11:37:10.360Z,3.40
2023-04-20T11:39:37.978Z,4.03
2023-04-20T11:42:05.281Z,3.10
2023-04-20T11:44:31.948Z,2.93
2023-04-20T11:46:59.743Z,3.10
2023-04-20T11:49:27.939Z,3.27
2023-04-20T11:51:54.838Z,3.13
2023-04-20T11:54:22.266Z,2.73
2023-04-20T11:56:48.921Z,2.83
2023-04-20T11:59:17.339Z,3.13
2023-04-20T12:01:43.992Z,2.57
2023-04-20T12:04:10.990Z,3.00
2023-04-20T12:06:37.652Z,3.20
2023-04-20T12:09:06.283Z,2.80
2023-04-20T12:11:33.107Z,3.10
2023-04-20T12:14:00.414Z,2.80
2023-04-20T12:16:27.123Z,2.70
2023-04-20T12:18:53.929Z,3.27
2023-04-20T12:21:20.827Z,2.60
2023-04-20T12:23:49.156Z,3.23
2023-04-20T12:26:15.749Z,3.27
2023-04-20T12:28:42.375Z,3.87
2023-04-20T12:31:08.933Z,2.70
2023-04-20T12:33:36.007Z,2.93
2023-04-20T12:36:02.595Z,2.93
2023-04-20T12:38:29.259Z,2.87
2023-04-20T12:40:55.780Z,3.07
2023-04-20T12:43:22.381Z,2.70
2023-04-20T12:45:48.879Z,2.90
2023-04-20T12:48:15.781Z,2.80
2023-04-20T12:50:42.464Z,3.03
2023-04-20T12:53:09.103Z,2.63
2023-04-20T12:55:35.760Z,3.10
2023-04-20T12:58:02.285Z,3.30
2023-04-20T13:00:28.888Z,2.93
2023-04-20T13:02:55.677Z,3.60
2023-04-20T13:05:22.266Z,2.90
2023-04-20T13:07:48.899Z,3.37
2023-04-20T13:10:15.719Z,3.37
2023-04-20T13:12:42.257Z,3.00
2023-04-20T13:15:09.454Z,2.67
2023-04-20T13:17:36.279Z,2.77
2023-04-20T13:20:04.652Z,2.70
2023-04-20T13:22:31.201Z,2.60
2023-04-20T13:24:57.732Z,2.60
2023-04-20T13:27:24.268Z,2.90
2023-04-20T13:29:50.938Z,3.37
2023-04-20T13:32:17.871Z,3.20
2023-04-20T13:34:44.447Z,3.00
2023-04-20T13:37:11.180Z,3.27
2023-04-20T13:39:37.778Z,3.87
2023-04-20T13:42:04.273Z,3.83
2023-04-20T13:44:31.172Z,3.13
2023-04-20T13:46:58.222Z,4.03
2023-04-20T13:49:24.763Z,3.67
2023-04-20T13:51:51.330Z,3.60
2023-04-20T13:54:18.265Z,4.03
2023-04-20T13:56:45.041Z,4.83
2023-04-20T13:59:12.637Z,4.63
2023-04-20T14:01:39.296Z,5.23
2023-04-20T14:04:06.317Z,6.20
2023-04-20T14:06:33.135Z,5.83
2023-04-20T14:08:59.698Z,5.50
2023-04-20T14:11:26.378Z,6.40
2023-04-20T14:13:52.990Z,7.13
2023-04-20T14:16:19.605Z,5.60
2023-04-20T14:18:46.282Z,5.87
2023-04-20T14:21:12.889Z,6.03
2023-04-20T14:23:39.577Z,6.50
2023-04-20T14:26:07.941Z,6.57
2023-04-20T14:28:34.644Z,6.40
2023-04-20T14:31:02.604Z,5.90
2023-04-20T14:33:29.238Z,7.00
2023-04-20T14:35:55.955Z,6.80
2023-04-20T14:38:22.553Z,7.07
2023-04-20T14:40:49.293Z,6.97
2023-04-20T14:43:16.039Z,6.87
2023-04-20T14:45:45.001Z,7.07
2023-04-20T14:48:11.742Z,6.70
2023-04-20T14:50:38.571Z,7.93
2023-04-20T14:53:05.079Z,7.33
2023-04-20T14:55:31.756Z,7.47
2023-04-20T14:57:58.341Z,6.97
2023-04-20T15:00:27.939Z,7.53
2023-04-20T15:02:56.803Z,7.00
2023-04-20T15:05:25.612Z,7.10
2023-04-20T15:07:52.430Z,7.50
2023-04-20T15:10:20.375Z,7.20
2023-04-20T15:12:47.926Z,7.43
2023-04-20T15:15:15.436Z,7.53
2023-04-20T15:17:42.034Z,7.90
2023-04-20T15:20:09.434Z,8.80
2023-04-20T15:22:36.800Z,8.60
2023-04-20T15:25:03.559Z,7.40
2023-04-20T15:27:30.346Z,7.07
2023-04-20T15:29:58.404Z,7.23
2023-04-20T15:32:25.878Z,7.10
2023-04-20T15:34:52.608Z,7.40
2023-04-20T15:37:19.433Z,6.53
2023-04-20T15:39:45.963Z,8.83
2023-04-20T15:42:12.558Z,7.57
2023-04-20T15:44:40.663Z,7.53
2023-04-20T15:47:07.454Z,9.70
2023-04-20T15:49:37.302Z,7.73
2023-04-20T15:52:04.612Z,7.63
2023-04-20T15:54:31.136Z,6.47
2023-04-20T15:56:57.865Z,7.90
2023-04-20T15:59:24.512Z,8.20
2023-04-20T16:01:51.379Z,8.47
2023-04-20T16:04:18.584Z,8.00
2023-04-20T16:06:45.685Z,9.33
2023-04-20T16:09:12.523Z,11.73
2023-04-20T16:11:40.731Z,9.47
2023-04-20T16:14:07.500Z,7.73
2023-04-20T16:16:34.065Z,7.73
2023-04-20T16:19:00.931Z,10.10
2023-04-20T16:21:27.490Z,8.70
2023-04-20T16:23:55.452Z,7.87
2023-04-20T16:26:22.188Z,7.83
2023-04-20T16:28:48.756Z,6.60
2023-04-20T16:31:15.466Z,7.00
2023-04-20T16:33:42.470Z,10.53
2023-04-20T16:36:09.223Z,9.50
2023-04-20T16:38:35.810Z,9.07
2023-04-20T16:41:02.498Z,9.07
2023-04-20T16:43:29.156Z,7.43
2023-04-20T16:45:55.731Z,7.13
2023-04-20T16:48:22.257Z,6.57
2023-04-20T16:50:49.014Z,6.90
2023-04-20T16:53:15.534Z,7.40
2023-04-20T16:55:42.210Z,7.07
2023-04-20T16:58:08.737Z,6.53
2023-04-20T17:00:35.814Z,7.33
2023-04-20T17:03:06.189Z,6.43
2023-04-20T17:05:32.916Z,7.20
2023-04-20T17:07:59.432Z,6.50
2023-04-20T17:10:25.922Z,9.00
2023-04-20T17:12:52.471Z,8.57
2023-04-20T17:15:19.007Z,7.20
2023-04-20T17:17:45.785Z,6.20
2023-04-20T17:20:12.801Z,7.83
2023-04-20T17:22:39.360Z,7.57
2023-04-20T17:25:07.743Z,4.33
2023-04-20T17:27:34.623Z,3.80
2023-04-20T17:30:02.083Z,4.13
2023-04-20T17:32:28.931Z,5.30
2023-04-20T17:34:55.631Z,7.63
2023-04-20T17:37:23.069Z,7.40
2023-04-20T17:39:49.646Z,5.97
2023-04-20T17:42:17.571Z,5.20
2023-04-20T17:44:44.130Z,7.30
2023-04-20T17:47:14.800Z,5.83
2023-04-20T17:49:41.486Z,5.80
2023-04-20T17:52:14.868Z,4.37
2023-04-20T17:54:41.450Z,4.93
2023-04-20T17:57:09.016Z,4.07
2023-04-20T17:59:36.107Z,4.67
2023-04-20T18:02:03.577Z,4.30
2023-04-20T18:04:30.875Z,5.57
2023-04-20T18:06:57.600Z,4.43
2023-04-20T18:09:24.212Z,4.13
2023-04-20T18:11:50.861Z,3.63
2023-04-20T18:14:17.767Z,3.57
2023-04-20T18:16:44.618Z,4.53
2023-04-20T18:19:11.203Z,8.40
2023-04-20T18:21:37.902Z,6.50
2023-04-20T18:24:06.533Z,3.97
2023-04-20T18:26:33.103Z,3.53
2023-04-20T18:28:59.677Z,4.30
2023-04-20T18:31:26.451Z,4.17
2023-04-20T18:33:52.973Z,3.13
2023-04-20T18:36:19.687Z,3.67
2023-04-20T18:38:46.241Z,3.97
2023-04-20T18:41:12.868Z,2.80
2023-04-20T18:43:39.528Z,3.47
2023-04-20T18:46:06.702Z,2.60
2023-04-20T18:48:33.325Z,3.13
2023-04-20T18:51:02.013Z,3.23
2023-04-20T18:53:29.558Z,2.63
2023-04-20T18:55:59.175Z,3.63
2023-04-20T18:58:25.712Z,2.60
2023-04-20T19:00:52.253Z,2.97
2023-04-20T19:03:19.132Z,3.00
2023-04-20T19:05:45.937Z,2.83
2023-04-20T19:08:12.635Z,3.00
2023-04-20T19:10:39.160Z,2.87
2023-04-20T19:13:06.061Z,2.70
2023-04-20T19:15:32.650Z,2.60
2023-04-20T19:17:59.468Z,2.60
2023-04-20T19:20:26.806Z,2.70
2023-04-20T19:22:53.384Z,2.40
2023-04-20T19:25:20.447Z,2.20
2023-04-20T19:27:47.041Z,2.27
2023-04-20T19:30:13.704Z,2.40
2023-04-20T19:32:40.293Z,2.63
2023-04-20T19:35:07.065Z,3.40
2023-04-20T19:37:33.722Z,2.77
2023-04-20T19:40:28.559Z,2.60
2023-04-20T19:42:55.150Z,2.50
2023-04-20T19:45:21.962Z,3.00
2023-04-20T19:47:51.604Z,2.30
2023-04-20T19:50:21.909Z,2.30
2023-04-20T19:52:48.569Z,2.37
2023-04-20T19:55:15.189Z,3.07
2023-04-20T19:57:41.776Z,2.70
2023-04-20T20:00:10.038Z,2.00
2023-04-20T20:02:37.542Z,2.30
2023-04-20T20:05:04.534Z,2.20
2023-04-20T20:07:31.272Z,2.60
2023-04-20T20:09:57.857Z,2.57
2023-04-20T20:12:24.430Z,2.50
2023-04-20T20:14:51.069Z,2.63
2023-04-20T20:17:20.143Z,2.57
2023-04-20T20:19:46.810Z,2.83
2023-04-20T20:22:13.392Z,1.93
2023-04-20T20:24:39.913Z,2.13
2023-04-20T20:27:06.488Z,2.03
2023-04-20T20:29:32.963Z,2.53
2023-04-20T20:31:59.518Z,2.20
2023-04-20T20:34:26.004Z,2.30
2023-04-20T20:36:53.357Z,1.90
2023-04-20T20:39:20.655Z,1.87
2023-04-20T20:41:47.690Z,2.43
2023-04-20T20:44:14.683Z,2.00
2023-04-20T20:46:41.370Z,2.80
2023-04-20T20:49:08.063Z,2.30
2023-04-20T20:51:34.730Z,2.33
2023-04-20T20:54:01.347Z,2.50
2023-04-20T20:56:27.937Z,2.33
2023-04-20T20:58:54.577Z,2.43
2023-04-20T21:01:28.241Z,2.63
2023-04-20T21:03:54.995Z,1.93
2023-04-20T21:06:21.698Z,2.00
2023-04-20T21:08:48.808Z,1.90
2023-04-20T21:11:15.385Z,2.73
2023-04-20T21:13:42.238Z,2.33
2023-04-20T21:16:08.732Z,2.60
2023-04-20T21:18:35.301Z,1.90
2023-04-20T21:21:01.894Z,2.17
2023-04-20T21:23:28.365Z,2.10
2023-04-20T21:25:55.007Z,3.23
2023-04-20T21:28:21.616Z,4.67
2023-04-20T21:30:48.148Z,7.20
2023-04-20T21:33:14.706Z,9.07
2023-04-20T21:35:41.323Z,10.37
2023-04-20T21:38:07.949Z,11.07
2023-04-20T21:40:34.712Z,12.40
2023-04-20T21:43:01.259Z,14.50
2023-04-20T21:45:27.781Z,13.53
2023-04-20T21:47:55.475Z,14.00
2023-04-20T21:50:26.889Z,12.40
2023-04-20T21:52:54.817Z,13.93
2023-04-20T21:55:21.469Z,15.17
2023-04-20T21:57:47.979Z,15.07
2023-04-20T22:00:15.521Z,15.80
2023-04-20T22:02:42.557Z,14.60
2023-04-20T22:05:10.313Z,16.53
2023-04-20T22:07:37.499Z,15.83
2023-04-20T22:10:04.290Z,15.13
2023-04-20T22:12:39.336Z,16.03
2023-04-20T22:15:10.698Z,16.50
2023-04-20T22:17:37.990Z,15.80
2023-04-20T22:20:10.044Z,18.00
2023-04-20T22:22:37.979Z,15.63
2023-04-20T22:25:06.453Z,17.60
2023-04-20T22:27:33.832Z,17.10
2023-04-20T22:30:00.690Z,18.27
2023-04-20T22:32:27.847Z,16.57
2023-04-20T22:34:54.399Z,16.27
2023-04-20T22:37:21.240Z,16.90
2023-04-20T22:39:47.744Z,18.10
2023-04-20T22:42:14.531Z,18.53
2023-04-20T22:44:41.079Z,18.40
2023-04-20T22:47:07.794Z,18.10
2023-04-20T22:49:34.991Z,16.77
2023-04-20T22:52:01.632Z,17.20
2023-04-20T22:54:28.106Z,18.83
2023-04-20T22:56:54.713Z,18.80
2023-04-20T22:59:21.385Z,17.50
2023-04-20T23:01:48.485Z,16.40
2023-04-20T23:04:15.141Z,16.70
2023-04-20T23:06:44.021Z,18.07
2023-04-20T23:09:13.435Z,19.63
2023-04-20T23:11:40.483Z,17.13
2023-04-20T23:14:07.886Z,16.43
2023-04-20T23:16:34.852Z,17.00
2023-04-20T23:19:01.646Z,16.93
2023-04-20T23:21:28.625Z,17.77
2023-04-20T23:23:58.411Z,17.63
2023-04-20T23:26:25.047Z,16.07
2023-04-20T23:28:52.472Z,18.33
2023-04-20T23:31:20.185Z,14.70
2023-04-20T23:33:47.268Z,14.80
2023-04-20T23:36:13.951Z,13.90
2023-04-20T23:38:41.109Z,12.67
2023-04-20T23:41:09.295Z,14.30
2023-04-20T23:43:35.905Z,15.37
2023-04-20T23:46:02.427Z,13.07
2023-04-20T23:48:29.061Z,14.53
2023-04-20T23:50:56.159Z,12.50
2023-04-20T23:53:23.031Z,12.57
2023-04-20T23:55:55.566Z,13.90
2023-04-20T23:58:26.053Z,14.10
